Ellsworth Air Force Base
KRCA : now visible

Airfield :











YOU CAN JOIN US ON...

 
LOGIN :

Register | Disclaimer

   EN    FR    IT 

 









Legend :    VFR   Marginal VFR   IFR   Intensive IFR   Very Intensive IFR
Visi :
Ceiling :
>= 8 km
>= 3000ft
5 to 8 km
1000 to 3000 ft
1500m to 5 km
500 to 1000 ft
800 to 1500m
200 to 500 ft
< 800m
< 200 ft
Symbols :   Thunderstorms  Fog  Heavy snow  Heavy precipitations  Wind > 20 kt







- Airport Elevation : 3276 ft


KRCA - Ellsworth Air Force Base

CURRENT METAR :
  • 211756Z AUTO 28017KT 10SM FEW048 19/08 A2988 RMK AO2 VIS 1/4 RWY13 SLP107 T01890076 10190 20089 52006 $

EXPIRED METARs :
  • 211556Z AUTO 29006KT 10SM CLR 17/12 A2987 RMK AO2 SLP106 T01650124 $
  • 211456Z AUTO 32013KT 10SM CLR 15/14 A2986 RMK AO2 VIS 1/8 RWY13 SLP105 T01490139 52016 $

TAF AMD TAF KRCA
Valid from the 20 at 21:00 until the 22 at 01:00 UTC


202153Z 2021/2201 VRB06KT 9999 SCT060 QNH2973INS
BECMG 2021/2022 VRB06KT 9000 -SHRA OVC060 QNH2972INS
TEMPO 2100/2104 20030G40KT 4800 -TSRAGR OVC030CB
BECMG 2104/2105 23008KT 9000 -SHRA VCTS BKN040 QNH2977INS
BECMG 2107/2108 29012KT 9999 NSW BKN040 QNH2977INS
BECMG 2114/2115 28020G25KT 9999 SKC 520001 QNH2982INS TX25/2022Z TN18/2111Z LAST NO AMDS AFT 2022 NEXT 2311
No reported NOTAMs for that airfield.



MET'MAP, your aeronautical weather chart ! - Copyright ORBIFLY December 2007 - Disclaimer

ORBIFLY MET'MAP TEAM :

Programming & Development : Alexandra Zaïnal
Concept & Development : Baudouin d'Aumeries
Co-Development & Prog : Marc-Olivier Méhu
Technical & hardware support : Manuel Goepfert

Contact : metmap@orbifly.com




SOURCES & CREDITS :

   NOAA       Earth
Advisory